LFOB/BVA METAR and TAF weather

Enter ICAO airport designator
Station Type Date Time Source
LFOB METAR 2021/04/18 02:30 UTC NOAA

LFOB 180230Z AUTO 32006KT CAVOK M00/M01 Q1024 NOSIG


Station Type Date Time Source
LFOB Decoded METAR 2021/04/18 02:30 UTC NOAA

Beauvais, France (LFOB) 49-28N 002-07E 111M
Apr 17, 2021 - 10:30 PM EDT / 2021.04.18 0230 UTC
Wind: from the NW (320 degrees) at 7 MPH (6 KT):0
Visibility: greater than 7 mile(s):0
Temperature: 32 F (0 C)
Windchill: 24 F (-4 C):1
Dew Point: 30 F (-1 C)
Relative Humidity: 92%
Pressure (altimeter): 30.24 in. Hg (1024 hPa)
ob: LFOB 180230Z AUTO 32006KT CAVOK M00/M01 Q1024 NOSIG
cycle: 2

Station Type Date Time Source
LFOB TAF 2021/04/17 18:21 UTC NOAA

TAF TAF LFOB 171700Z 1718/1818 36012KT CAVOK
BECMG 1720/1723 VRB03KT
BECMG 1807/1810 02010KT

Example: see airport list